sensor_id;sensor_type;location;lat;lon;timestamp;pressure;altitude;pressure_sealevel;temperature;humidity
2785;BME280;57944;48.722;9.316;2024-01-25T00:02:02;99270.34;;;9.04;100.00
2785;BME280;57944;48.722;9.316;2024-01-25T00:04:33;99265.91;;;9.06;100.00
2785;BME280;57944;48.722;9.316;2024-01-25T00:07:04;99268.84;;;9.20;100.00
2785;BME280;57944;48.722;9.316;2024-01-25T00:09:35;99265.69;;;9.26;100.00
2785;BME280;57944;48.722;9.316;2024-01-25T00:12:09;99262.44;;;9.15;100.00
2785;BME280;57944;48.722;9.316;2024-01-25T00:14:39;99252.94;;;9.17;100.00
2785;BME280;57944;48.722;9.316;2024-01-25T00:17:10;99251.47;;;9.15;100.00
2785;BME280;57944;48.722;9.316;2024-01-25T00:19:40;99248.81;;;9.25;100.00
2785;BME280;57944;48.722;9.316;2024-01-25T00:22:11;99248.66;;;9.26;100.00
2785;BME280;57944;48.722;9.316;2024-01-25T00:24:42;99246.50;;;9.39;100.00
2785;BME280;57944;48.722;9.316;2024-01-25T00:27:15;99250.16;;;9.37;100.00
2785;BME280;57944;48.722;9.316;2024-01-25T00:29:46;99240.91;;;9.28;100.00
2785;BME280;57944;48.722;9.316;2024-01-25T00:32:17;99238.38;;;9.36;100.00
2785;BME280;57944;48.722;9.316;2024-01-25T00:34:48;99242.53;;;9.37;100.00
2785;BME280;57944;48.722;9.316;2024-01-25T00:37:20;99248.53;;;9.28;100.00
2785;BME280;57944;48.722;9.316;2024-01-25T00:39:51;99237.78;;;9.42;100.00
2785;BME280;57944;48.722;9.316;2024-01-25T00:42:25;99246.81;;;9.36;100.00
2785;BME280;57944;48.722;9.316;2024-01-25T00:44:57;99244.75;;;9.40;100.00
2785;BME280;57944;48.722;9.316;2024-01-25T00:47:28;99240.28;;;9.34;100.00
2785;BME280;57944;48.722;9.316;2024-01-25T00:49:59;99238.72;;;9.41;100.00
2785;BME280;57944;48.722;9.316;2024-01-25T00:52:31;99244.75;;;9.40;100.00
2785;BME280;57944;48.722;9.316;2024-01-25T00:55:04;99239.03;;;9.38;100.00
2785;BME280;57944;48.722;9.316;2024-01-25T00:57:38;99236.50;;;9.46;100.00
2785;BME280;57944;48.722;9.316;2024-01-25T01:00:10;99241.25;;;9.41;100.00
2785;BME280;57944;48.722;9.316;2024-01-25T01:02:44;99241.75;;;9.45;100.00
2785;BME280;57944;48.722;9.316;2024-01-25T01:05:16;99232.06;;;9.48;100.00
2785;BME280;57944;48.722;9.316;2024-01-25T01:07:47;99242.03;;;9.42;100.00
2785;BME280;57944;48.722;9.316;2024-01-25T01:10:18;99238.13;;;9.47;100.00
2785;BME280;57944;48.722;9.316;2024-01-25T01:12:51;99228.88;;;9.46;100.00
2785;BME280;57944;48.722;9.316;2024-01-25T01:15:22;99234.28;;;9.43;100.00
2785;BME280;57944;48.722;9.316;2024-01-25T01:17:53;99232.81;;;9.40;100.00
2785;BME280;57944;48.722;9.316;2024-01-25T01:20:24;99228.41;;;9.51;100.00
2785;BME280;57944;48.722;9.316;2024-01-25T01:22:55;99220.31;;;9.55;100.00
2785;BME280;57944;48.722;9.316;2024-01-25T01:25:25;99232.09;;;9.56;100.00
2785;BME280;57944;48.722;9.316;2024-01-25T01:27:59;99235.28;;;9.50;100.00
2785;BME280;57944;48.722;9.316;2024-01-25T01:30:29;99228.72;;;9.48;100.00
2785;BME280;57944;48.722;9.316;2024-01-25T01:33:00;99230.19;;;9.50;100.00
2785;BME280;57944;48.722;9.316;2024-01-25T01:35:30;99224.59;;;9.55;100.00
2785;BME280;57944;48.722;9.316;2024-01-25T01:38:01;99226.66;;;9.51;100.00
2785;BME280;57944;48.722;9.316;2024-01-25T01:40:32;99224.91;;;9.52;100.00
2785;BME280;57944;48.722;9.316;2024-01-25T01:43:02;99216.19;;;9.54;100.00
2785;BME280;57944;48.722;9.316;2024-01-25T01:45:33;99217.16;;;9.53;100.00
2785;BME280;57944;48.722;9.316;2024-01-25T01:48:05;99218.69;;;9.46;100.00
2785;BME280;57944;48.722;9.316;2024-01-25T01:50:36;99222.19;;;9.45;100.00
2785;BME280;57944;48.722;9.316;2024-01-25T01:53:07;99223.13;;;9.44;100.00
2785;BME280;57944;48.722;9.316;2024-01-25T01:55:38;99211.22;;;9.45;100.00
2785;BME280;57944;48.722;9.316;2024-01-25T01:58:12;99211.72;;;9.48;100.00
2785;BME280;57944;48.722;9.316;2024-01-25T02:00:44;99226.19;;;9.48;100.00
2785;BME280;57944;48.722;9.316;2024-01-25T02:03:16;99220.31;;;9.47;100.00
2785;BME280;57944;48.722;9.316;2024-01-25T02:05:47;99232.06;;;9.48;100.00
2785;BME280;57944;48.722;9.316;2024-01-25T02:08:18;99230.50;;;9.47;100.00
2785;BME280;57944;48.722;9.316;2024-01-25T02:10:49;99232.06;;;9.48;100.00
2785;BME280;57944;48.722;9.316;2024-01-25T02:13:22;99219.19;;;9.50;100.00
2785;BME280;57944;48.722;9.316;2024-01-25T02:15:54;99225.41;;;9.47;100.00
2785;BME280;57944;48.722;9.316;2024-01-25T02:18:24;99225.22;;;9.49;100.00
2785;BME280;57944;48.722;9.316;2024-01-25T02:20:56;99224.41;;;9.40;100.00
2785;BME280;57944;48.722;9.316;2024-01-25T02:23:29;99228.22;;;9.44;100.00
2785;BME280;57944;48.722;9.316;2024-01-25T02:26:00;99214.25;;;9.48;100.00
2785;BME280;57944;48.722;9.316;2024-01-25T02:28:31;99196.06;;;9.35;100.00
2785;BME280;57944;48.722;9.316;2024-01-25T02:31:03;99214.84;;;9.34;100.00
2785;BME280;57944;48.722;9.316;2024-01-25T02:33:33;99222.16;;;9.37;100.00
2785;BME280;57944;48.722;9.316;2024-01-25T02:36:05;99216.44;;;9.35;100.00
2785;BME280;57944;48.722;9.316;2024-01-25T02:38:38;99217.72;;;9.39;100.00
2785;BME280;57944;48.722;9.316;2024-01-25T02:41:09;99220.41;;;9.37;100.00
2785;BME280;57944;48.722;9.316;2024-01-25T02:43:39;99221.81;;;9.32;100.00
2785;BME280;57944;48.722;9.316;2024-01-25T02:46:10;99215.94;;;9.31;100.00
2785;BME280;57944;48.722;9.316;2024-01-25T02:48:41;99215.75;;;9.25;100.00
2785;BME280;57944;48.722;9.316;2024-01-25T02:51:12;99221.81;;;9.32;100.00
2785;BME280;57944;48.722;9.316;2024-01-25T02:53:45;99223.09;;;9.28;100.00
2785;BME280;57944;48.722;9.316;2024-01-25T02:56:15;99225.91;;;9.25;100.00
2785;BME280;57944;48.722;9.316;2024-01-25T02:58:46;99231.16;;;9.23;100.00
2785;BME280;57944;48.722;9.316;2024-01-25T03:01:14;99225.91;;;9.25;100.00
2785;BME280;57944;48.722;9.316;2024-01-25T03:03:45;99219.25;;;9.24;100.00
2785;BME280;57944;48.722;9.316;2024-01-25T03:06:15;99216.88;;;9.22;100.00
2785;BME280;57944;48.722;9.316;2024-01-25T03:08:49;99227.78;;;9.14;100.00
2785;BME280;57944;48.722;9.316;2024-01-25T03:11:19;99223.63;;;9.13;100.00
2785;BME280;57944;48.722;9.316;2024-01-25T03:13:50;99228.28;;;9.18;100.00
2785;BME280;57944;48.722;9.316;2024-01-25T03:16:20;99227.44;;;9.09;100.00
2785;BME280;57944;48.722;9.316;2024-01-25T03:18:51;99233.53;;;9.16;100.00
2785;BME280;57944;48.722;9.316;2024-01-25T03:21:22;99228.91;;;9.12;100.00
2785;BME280;57944;48.722;9.316;2024-01-25T03:23:55;99240.81;;;9.11;100.00
2785;BME280;57944;48.722;9.316;2024-01-25T03:26:27;99230.38;;;9.23;100.00
2785;BME280;57944;48.722;9.316;2024-01-25T03:28:58;99237.75;;;9.08;100.00
2785;BME280;57944;48.722;9.316;2024-01-25T03:31:28;99241.41;;;9.05;100.00
2785;BME280;57944;48.722;9.316;2024-01-25T03:33:59;99244.50;;;9.17;100.00
2785;BME280;57944;48.722;9.316;2024-01-25T03:36:30;99247.78;;;9.09;100.00
2785;BME280;57944;48.722;9.316;2024-01-25T03:39:03;99248.88;;;9.07;100.00
2785;BME280;57944;48.722;9.316;2024-01-25T03:41:34;99257.19;;;9.09;100.00
2785;BME280;57944;48.722;9.316;2024-01-25T03:44:05;99265.25;;;9.04;100.00
2785;BME280;57944;48.722;9.316;2024-01-25T03:46:35;99259.81;;;8.99;100.00
2785;BME280;57944;48.722;9.316;2024-01-25T03:49:06;99263.00;;;9.01;100.00
2785;BME280;57944;48.722;9.316;2024-01-25T03:51:37;99267.06;;;8.94;100.00
2785;BME280;57944;48.722;9.316;2024-01-25T03:54:10;99282.63;;;8.91;100.00
2785;BME280;57944;48.722;9.316;2024-01-25T03:56:41;99280.41;;;8.88;100.00
2785;BME280;57944;48.722;9.316;2024-01-25T03:59:12;99286.56;;;8.85;100.00
2785;BME280;57944;48.722;9.316;2024-01-25T04:01:43;99280.91;;;8.91;100.00
2785;BME280;57944;48.722;9.316;2024-01-25T04:04:16;99276.88;;;8.81;100.00
2785;BME280;57944;48.722;9.316;2024-01-25T04:06:47;99282.09;;;8.79;100.00
2785;BME280;57944;48.722;9.316;2024-01-25T04:09:20;99282.38;;;8.76;100.00
2785;BME280;57944;48.722;9.316;2024-01-25T04:11:50;99279.69;;;8.78;100.00
2785;BME280;57944;48.722;9.316;2024-01-25T04:14:21;99286.38;;;8.79;100.00
2785;BME280;57944;48.722;9.316;2024-01-25T04:16:52;99291.25;;;8.72;100.00
2785;BME280;57944;48.722;9.316;2024-01-25T04:19:22;99283.47;;;8.73;100.00
2785;BME280;57944;48.722;9.316;2024-01-25T04:21:53;99288.56;;;8.73;100.00
2785;BME280;57944;48.722;9.316;2024-01-25T04:24:26;99294.44;;;8.74;100.00
2785;BME280;57944;48.722;9.316;2024-01-25T04:26:57;99287.75;;;8.73;100.00
2785;BME280;57944;48.722;9.316;2024-01-25T04:29:27;99287.69;;;8.65;100.00
2785;BME280;57944;48.722;9.316;2024-01-25T04:31:58;99294.88;;;8.69;100.00
2785;BME280;57944;48.722;9.316;2024-01-25T04:34:28;99304.16;;;8.79;100.00
2785;BME280;57944;48.722;9.316;2024-01-25T04:36:59;99303.31;;;8.70;100.00
2785;BME280;57944;48.722;9.316;2024-01-25T04:39:32;99299.69;;;8.72;100.00
2785;BME280;57944;48.722;9.316;2024-01-25T04:42:04;99296.78;;;8.67;100.00
2785;BME280;57944;48.722;9.316;2024-01-25T04:44:34;99301.44;;;8.72;100.00
2785;BME280;57944;48.722;9.316;2024-01-25T04:47:05;99300.91;;;8.68;100.00
2785;BME280;57944;48.722;9.316;2024-01-25T04:49:36;99298.06;;;8.71;100.00
2785;BME280;57944;48.722;9.316;2024-01-25T04:52:07;99306.50;;;8.72;100.00
2785;BME280;57944;48.722;9.316;2024-01-25T04:54:40;99310.03;;;8.79;100.00
2785;BME280;57944;48.722;9.316;2024-01-25T04:57:11;99315.34;;;8.68;100.00
2785;BME280;57944;48.722;9.316;2024-01-25T04:59:42;99316.25;;;8.59;100.00
2785;BME280;57944;48.722;9.316;2024-01-25T05:02:12;99321.63;;;8.56;100.00
2785;BME280;57944;48.722;9.316;2024-01-25T05:04:43;99328.78;;;8.60;100.00
2785;BME280;57944;48.722;9.316;2024-01-25T05:07:14;99333.97;;;8.50;100.00
2785;BME280;57944;48.722;9.316;2024-01-25T05:09:47;99333.78;;;8.52;100.00
2785;BME280;57944;48.722;9.316;2024-01-25T05:12:18;99328.50;;;8.45;100.00
2785;BME280;57944;48.722;9.316;2024-01-25T05:14:49;99334.28;;;8.38;100.00
2785;BME280;57944;48.722;9.316;2024-01-25T05:17:20;99340.59;;;8.34;100.00
2785;BME280;57944;48.722;9.316;2024-01-25T05:19:50;99332.88;;;8.25;100.00
2785;BME280;57944;48.722;9.316;2024-01-25T05:22:21;99336.28;;;8.16;100.00
2785;BME280;57944;48.722;9.316;2024-01-25T05:24:54;99333.56;;;8.00;100.00
2785;BME280;57944;48.722;9.316;2024-01-25T05:27:25;99328.03;;;7.87;100.00
2785;BME280;57944;48.722;9.316;2024-01-25T05:29:56;99328.31;;;7.83;100.00
2785;BME280;57944;48.722;9.316;2024-01-25T05:32:26;99332.63;;;7.73;100.00
2785;BME280;57944;48.722;9.316;2024-01-25T05:34:58;99332.22;;;7.68;100.00
2785;BME280;57944;48.722;9.316;2024-01-25T05:37:28;99340.13;;;7.65;100.00
2785;BME280;57944;48.722;9.316;2024-01-25T05:40:03;99343.22;;;7.59;100.00
2785;BME280;57944;48.722;9.316;2024-01-25T05:42:34;99335.78;;;7.48;100.00
2785;BME280;57944;48.722;9.316;2024-01-25T05:45:05;99337.69;;;7.26;100.00
2785;BME280;57944;48.722;9.316;2024-01-25T05:47:37;99343.84;;;7.24;100.00
2785;BME280;57944;48.722;9.316;2024-01-25T05:50:08;99334.66;;;7.13;100.00
2785;BME280;57944;48.722;9.316;2024-01-25T05:52:39;99342.13;;;7.05;100.00
2785;BME280;57944;48.722;9.316;2024-01-25T05:55:12;99344.44;;;6.88;100.00
2785;BME280;57944;48.722;9.316;2024-01-25T05:57:44;99345.88;;;6.81;100.00
2785;BME280;57944;48.722;9.316;2024-01-25T06:00:16;99343.22;;;6.83;100.00
2785;BME280;57944;48.722;9.316;2024-01-25T06:02:48;99349.09;;;6.83;100.00
2785;BME280;57944;48.722;9.316;2024-01-25T06:05:19;99344.03;;;6.83;100.00
2785;BME280;57944;48.722;9.316;2024-01-25T06:07:49;99342.03;;;6.77;100.00
2785;BME280;57944;48.722;9.316;2024-01-25T06:10:23;99343.34;;;6.62;100.00
2785;BME280;57944;48.722;9.316;2024-01-25T06:12:54;99336.97;;;6.58;100.00
2785;BME280;57944;48.722;9.316;2024-01-25T06:15:24;99344.81;;;6.64;100.00
2785;BME280;57944;48.722;9.316;2024-01-25T06:17:55;99349.63;;;6.58;100.00
2785;BME280;57944;48.722;9.316;2024-01-25T06:20:26;99348.16;;;6.65;100.00
2785;BME280;57944;48.722;9.316;2024-01-25T06:22:57;99355.19;;;6.52;100.00
2785;BME280;57944;48.722;9.316;2024-01-25T06:25:30;99348.13;;;6.45;100.00
2785;BME280;57944;48.722;9.316;2024-01-25T06:28:03;99353.84;;;6.38;100.00
2785;BME280;57944;48.722;9.316;2024-01-25T06:30:34;99355.44;;;6.29;100.00
2785;BME280;57944;48.722;9.316;2024-01-25T06:33:05;99359.28;;;6.14;100.00
2785;BME280;57944;48.722;9.316;2024-01-25T06:35:36;99360.16;;;6.03;100.00
2785;BME280;57944;48.722;9.316;2024-01-25T06:38:06;99359.22;;;5.94;100.00
2785;BME280;57944;48.722;9.316;2024-01-25T06:40:39;99369.38;;;5.83;100.00
2785;BME280;57944;48.722;9.316;2024-01-25T06:43:10;99371.50;;;5.78;100.00
2785;BME280;57944;48.722;9.316;2024-01-25T06:45:41;99361.88;;;5.72;100.00
2785;BME280;57944;48.722;9.316;2024-01-25T06:48:13;99362.88;;;5.59;100.00
2785;BME280;57944;48.722;9.316;2024-01-25T06:50:44;99359.69;;;5.57;100.00
2785;BME280;57944;48.722;9.316;2024-01-25T06:53:15;99366.66;;;5.44;100.00
2785;BME280;57944;48.722;9.316;2024-01-25T06:55:48;99365.56;;;5.37;100.00
2785;BME280;57944;48.722;9.316;2024-01-25T06:58:18;99380.78;;;5.26;100.00
2785;BME280;57944;48.722;9.316;2024-01-25T07:00:50;99385.66;;;5.18;100.00
2785;BME280;57944;48.722;9.316;2024-01-25T07:03:21;99392.88;;;5.22;100.00
2785;BME280;57944;48.722;9.316;2024-01-25T07:05:52;99384.16;;;5.15;100.00
2785;BME280;57944;48.722;9.316;2024-01-25T07:08:22;99394.31;;;5.04;100.00
2785;BME280;57944;48.722;9.316;2024-01-25T07:10:55;99386.38;;;5.08;100.00
2785;BME280;57944;48.722;9.316;2024-01-25T07:13:28;99393.25;;;5.38;100.00
2785;BME280;57944;48.722;9.316;2024-01-25T07:15:59;99390.59;;;5.40;100.00
2785;BME280;57944;48.722;9.316;2024-01-25T07:18:30;99388.25;;;5.48;100.00
2785;BME280;57944;48.722;9.316;2024-01-25T07:21:01;99378.38;;;5.45;100.00
2785;BME280;57944;48.722;9.316;2024-01-25T07:23:33;99377.03;;;5.41;100.00
2785;BME280;57944;48.722;9.316;2024-01-25T07:26:07;99373.03;;;5.38;100.00
2785;BME280;57944;48.722;9.316;2024-01-25T07:28:38;99384.47;;;5.43;100.00
2785;BME280;57944;48.722;9.316;2024-01-25T07:31:08;99389.19;;;5.47;100.00
2785;BME280;57944;48.722;9.316;2024-01-25T07:33:39;99396.41;;;5.52;100.00
2785;BME280;57944;48.722;9.316;2024-01-25T07:36:10;99391.75;;;5.57;100.00
2785;BME280;57944;48.722;9.316;2024-01-25T07:38:44;99394.06;;;5.60;100.00
2785;BME280;57944;48.722;9.316;2024-01-25T07:41:17;99392.06;;;5.64;100.00
2785;BME280;57944;48.722;9.316;2024-01-25T07:43:47;99383.03;;;5.71;100.00
2785;BME280;57944;48.722;9.316;2024-01-25T07:46:23;99389.47;;;5.75;100.00
2785;BME280;57944;48.722;9.316;2024-01-25T07:48:54;99387.63;;;5.87;100.00
2785;BME280;57944;48.722;9.316;2024-01-25T07:51:25;99390.31;;;5.85;100.00
2785;BME280;57944;48.722;9.316;2024-01-25T07:53:57;99388.53;;;6.07;100.00
2785;BME280;57944;48.722;9.316;2024-01-25T07:56:30;99405.88;;;6.11;100.00
2785;BME280;57944;48.722;9.316;2024-01-25T07:59:00;99405.41;;;6.27;100.00
2785;BME280;57944;48.722;9.316;2024-01-25T08:01:31;99403.41;;;6.31;100.00
2785;BME280;57944;48.722;9.316;2024-01-25T08:04:02;99402.22;;;6.35;100.00
2785;BME280;57944;48.722;9.316;2024-01-25T08:06:33;99400.75;;;6.32;100.00
2785;BME280;57944;48.722;9.316;2024-01-25T08:09:03;99390.47;;;6.24;100.00
2785;BME280;57944;48.722;9.316;2024-01-25T08:11:37;99385.16;;;6.27;100.00
2785;BME280;57944;48.722;9.316;2024-01-25T08:14:07;99388.09;;;6.32;100.00
2785;BME280;57944;48.722;9.316;2024-01-25T08:16:38;99388.13;;;6.42;100.00
2785;BME280;57944;48.722;9.316;2024-01-25T08:19:09;99391.44;;;6.42;100.00
2785;BME280;57944;48.722;9.316;2024-01-25T08:21:40;99395.34;;;6.46;100.00
2785;BME280;57944;48.722;9.316;2024-01-25T08:24:11;99408.16;;;6.55;100.00
2785;BME280;57944;48.722;9.316;2024-01-25T08:26:44;99415.34;;;6.59;100.00
2785;BME280;57944;48.722;9.316;2024-01-25T08:29:14;99426.94;;;6.62;100.00
2785;BME280;57944;48.722;9.316;2024-01-25T08:31:45;99421.50;;;6.66;100.00
2785;BME280;57944;48.722;9.316;2024-01-25T08:34:16;99419.91;;;6.75;100.00
2785;BME280;57944;48.722;9.316;2024-01-25T08:36:49;99420.72;;;6.85;100.00
2785;BME280;57944;48.722;9.316;2024-01-25T08:39:19;99412.06;;;6.98;100.00
2785;BME280;57944;48.722;9.316;2024-01-25T08:41:52;99413.50;;;7.10;100.00
2785;BME280;57944;48.722;9.316;2024-01-25T08:44:24;99415.00;;;7.03;100.00
2785;BME280;57944;48.722;9.316;2024-01-25T08:46:55;99411.09;;;6.79;100.00
2785;BME280;57944;48.722;9.316;2024-01-25T08:49:26;99423.38;;;6.93;100.00
2785;BME280;57944;48.722;9.316;2024-01-25T08:51:56;99426.03;;;7.02;100.00
2785;BME280;57944;48.722;9.316;2024-01-25T08:54:27;99439.00;;;6.99;100.00
2785;BME280;57944;48.722;9.316;2024-01-25T08:57:01;99440.75;;;7.18;100.00
2785;BME280;57944;48.722;9.316;2024-01-25T08:59:31;99454.47;;;7.34;100.00
2785;BME280;57944;48.722;9.316;2024-01-25T09:02:05;99451.09;;;7.63;100.00
2785;BME280;57944;48.722;9.316;2024-01-25T09:04:36;99455.94;;;7.66;100.00
2785;BME280;57944;48.722;9.316;2024-01-25T09:07:11;99452.19;;;7.60;100.00
2785;BME280;57944;48.722;9.316;2024-01-25T09:09:42;99453.47;;;7.74;100.00
2785;BME280;57944;48.722;9.316;2024-01-25T09:12:15;99447.31;;;7.87;100.00
2785;BME280;57944;48.722;9.316;2024-01-25T09:14:46;99448.63;;;7.91;100.00
2785;BME280;57944;48.722;9.316;2024-01-25T09:17:17;99449.81;;;7.96;100.00
2785;BME280;57944;48.722;9.316;2024-01-25T09:19:50;99458.72;;;8.10;100.00
2785;BME280;57944;48.722;9.316;2024-01-25T09:22:21;99465.34;;;8.31;100.00
2785;BME280;57944;48.722;9.316;2024-01-25T09:24:52;99469.84;;;8.37;100.00
2785;BME280;57944;48.722;9.316;2024-01-25T09:27:25;99469.69;;;8.76;100.00
2785;BME280;57944;48.722;9.316;2024-01-25T09:29:56;99477.97;;;9.13;100.00
2785;BME280;57944;48.722;9.316;2024-01-25T09:32:27;99475.94;;;9.35;100.00
2785;BME280;57944;48.722;9.316;2024-01-25T09:34:58;99475.50;;;9.22;100.00
2785;BME280;57944;48.722;9.316;2024-01-25T09:37:29;99467.28;;;9.46;100.00
2785;BME280;57944;48.722;9.316;2024-01-25T09:40:00;99475.28;;;9.51;100.00
2785;BME280;57944;48.722;9.316;2024-01-25T09:42:35;99479.41;;;9.52;100.00
2785;BME280;57944;48.722;9.316;2024-01-25T09:45:07;99485.16;;;9.54;100.00
2785;BME280;57944;48.722;9.316;2024-01-25T09:47:39;99487.66;;;10.24;100.00
2785;BME280;57944;48.722;9.316;2024-01-25T09:50:10;99492.53;;;10.86;100.00
2785;BME280;57944;48.722;9.316;2024-01-25T09:52:44;99495.59;;;11.22;100.00
2785;BME280;57944;48.722;9.316;2024-01-25T09:55:18;99487.97;;;11.47;100.00
2785;BME280;57944;48.722;9.316;2024-01-25T09:57:54;99478.84;;;11.60;100.00
2785;BME280;57944;48.722;9.316;2024-01-25T10:00:25;99480.25;;;10.81;100.00
2785;BME280;57944;48.722;9.316;2024-01-25T10:02:59;99481.88;;;10.40;100.00
2785;BME280;57944;48.722;9.316;2024-01-25T10:05:30;99500.06;;;10.19;100.00
2785;BME280;57944;48.722;9.316;2024-01-25T10:08:01;99479.06;;;10.25;100.00
2785;BME280;57944;48.722;9.316;2024-01-25T10:10:33;99485.72;;;10.18;100.00
2785;BME280;57944;48.722;9.316;2024-01-25T10:13:06;99498.75;;;9.89;100.00
2785;BME280;57944;48.722;9.316;2024-01-25T10:15:42;99496.91;;;9.99;100.00
2785;BME280;57944;48.722;9.316;2024-01-25T10:18:15;99492.75;;;10.24;100.00
2785;BME280;57944;48.722;9.316;2024-01-25T10:20:56;99490.88;;;10.00;100.00
2785;BME280;57944;48.722;9.316;2024-01-25T10:23:29;99480.97;;;9.97;100.00
2785;BME280;57944;48.722;9.316;2024-01-25T10:26:00;99483.28;;;9.82;100.00
2785;BME280;57944;48.722;9.316;2024-01-25T10:28:34;99472.09;;;9.75;100.00
2785;BME280;57944;48.722;9.316;2024-01-25T10:31:05;99468.41;;;9.69;100.00
2785;BME280;57944;48.722;9.316;2024-01-25T10:33:38;99469.59;;;9.83;100.00
2785;BME280;57944;48.722;9.316;2024-01-25T10:36:11;99470.00;;;9.96;100.00
2785;BME280;57944;48.722;9.316;2024-01-25T10:38:44;99471.97;;;10.11;100.00
2785;BME280;57944;48.722;9.316;2024-01-25T10:41:20;99465.97;;;10.12;100.00
2785;BME280;57944;48.722;9.316;2024-01-25T10:43:53;99467.66;;;10.29;100.00
2785;BME280;57944;48.722;9.316;2024-01-25T10:46:24;99463.81;;;10.67;99.85
2785;BME280;57944;48.722;9.316;2024-01-25T10:48:58;99460.50;;;11.08;96.09
2785;BME280;57944;48.722;9.316;2024-01-25T10:51:30;99447.44;;;11.11;91.62
2785;BME280;57944;48.722;9.316;2024-01-25T10:54:02;99445.53;;;11.05;92.23
2785;BME280;57944;48.722;9.316;2024-01-25T10:56:35;99437.88;;;11.13;91.77
2785;BME280;57944;48.722;9.316;2024-01-25T10:59:10;99429.25;;;11.30;91.85
2785;BME280;57944;48.722;9.316;2024-01-25T11:01:43;99439.13;;;11.50;90.89
2785;BME280;57944;48.722;9.316;2024-01-25T11:04:17;99443.81;;;12.10;86.23
2785;BME280;57944;48.722;9.316;2024-01-25T11:06:48;99441.75;;;12.99;80.08
2785;BME280;57944;48.722;9.316;2024-01-25T11:09:21;99443.25;;;13.54;70.41
2785;BME280;57944;48.722;9.316;2024-01-25T11:11:55;99437.50;;;12.60;77.33
2785;BME280;57944;48.722;9.316;2024-01-25T11:14:29;99426.84;;;13.26;69.96
2785;BME280;57944;48.722;9.316;2024-01-25T11:17:15;99414.34;;;13.60;67.28
2785;BME280;57944;48.722;9.316;2024-01-25T11:19:46;99423.19;;;12.97;70.50
2785;BME280;57944;48.722;9.316;2024-01-25T11:22:19;99410.91;;;12.69;74.81
2785;BME280;57944;48.722;9.316;2024-01-25T11:24:50;99406.91;;;12.44;73.73
2785;BME280;57944;48.722;9.316;2024-01-25T11:27:21;99402.44;;;12.92;72.67
2785;BME280;57944;48.722;9.316;2024-01-25T11:29:55;99400.94;;;13.21;70.96
2785;BME280;57944;48.722;9.316;2024-01-25T11:32:26;99403.84;;;12.94;74.16
2785;BME280;57944;48.722;9.316;2024-01-25T11:34:58;99396.25;;;12.63;72.88
2785;BME280;57944;48.722;9.316;2024-01-25T11:37:29;99402.59;;;13.13;72.04
2785;BME280;57944;48.722;9.316;2024-01-25T11:40:00;99391.22;;;13.69;68.82
2785;BME280;57944;48.722;9.316;2024-01-25T11:42:31;99381.44;;;14.08;65.19
2785;BME280;57944;48.722;9.316;2024-01-25T11:45:05;99376.56;;;13.62;65.92
2785;BME280;57944;48.722;9.316;2024-01-25T11:47:36;99367.00;;;13.86;66.44
2785;BME280;57944;48.722;9.316;2024-01-25T11:50:09;99368.94;;;15.00;64.01
2785;BME280;57944;48.722;9.316;2024-01-25T11:52:40;99369.00;;;15.69;57.05
2785;BME280;57944;48.722;9.316;2024-01-25T11:55:12;99367.09;;;15.50;56.44
2785;BME280;57944;48.722;9.316;2024-01-25T11:57:43;99375.56;;;15.44;56.63
2785;BME280;57944;48.722;9.316;2024-01-25T12:00:18;99376.25;;;15.24;56.77
2785;BME280;57944;48.722;9.316;2024-01-25T12:02:50;99375.91;;;15.06;58.57
2785;BME280;57944;48.722;9.316;2024-01-25T12:05:21;99376.03;;;14.97;58.04
2785;BME280;57944;48.722;9.316;2024-01-25T12:07:52;99372.25;;;14.93;58.36
2785;BME280;57944;48.722;9.316;2024-01-25T12:10:23;99378.56;;;14.69;58.46
2785;BME280;57944;48.722;9.316;2024-01-25T12:12:56;99371.53;;;14.57;60.09
2785;BME280;57944;48.722;9.316;2024-01-25T12:15:31;99371.78;;;14.62;59.88
2785;BME280;57944;48.722;9.316;2024-01-25T12:18:02;99356.19;;;14.05;60.56
2785;BME280;57944;48.722;9.316;2024-01-25T12:20:36;99359.06;;;13.66;63.32
2785;BME280;57944;48.722;9.316;2024-01-25T12:23:08;99357.34;;;13.29;66.87
2785;BME280;57944;48.722;9.316;2024-01-25T12:25:40;99357.03;;;13.47;66.97
2785;BME280;57944;48.722;9.316;2024-01-25T12:28:11;99347.84;;;13.52;66.71
2785;BME280;57944;48.722;9.316;2024-01-25T12:30:44;99356.59;;;13.43;68.32
2785;BME280;57944;48.722;9.316;2024-01-25T12:33:15;99353.59;;;13.02;69.29
2785;BME280;57944;48.722;9.316;2024-01-25T12:35:48;99348.59;;;12.85;72.87
2785;BME280;57944;48.722;9.316;2024-01-25T12:38:19;99336.91;;;12.68;75.08
2785;BME280;57944;48.722;9.316;2024-01-25T12:40:50;99340.41;;;12.90;75.03
2785;BME280;57944;48.722;9.316;2024-01-25T12:43:21;99335.47;;;13.26;70.26
2785;BME280;57944;48.722;9.316;2024-01-25T12:45:56;99334.50;;;13.42;69.22
2785;BME280;57944;48.722;9.316;2024-01-25T12:48:44;99327.16;;;13.69;69.00
2785;BME280;57944;48.722;9.316;2024-01-25T12:51:15;99330.09;;;13.66;66.34
2785;BME280;57944;48.722;9.316;2024-01-25T12:53:46;99335.59;;;13.25;67.72
2785;BME280;57944;48.722;9.316;2024-01-25T12:56:17;99322.41;;;12.98;68.80
2785;BME280;57944;48.722;9.316;2024-01-25T12:58:48;99320.66;;;12.38;72.97
2785;BME280;57944;48.722;9.316;2024-01-25T13:01:21;99317.13;;;12.39;74.70
2785;BME280;57944;48.722;9.316;2024-01-25T13:03:52;99320.25;;;12.26;76.68
2785;BME280;57944;48.722;9.316;2024-01-25T13:06:24;99314.25;;;11.88;77.24
2785;BME280;57944;48.722;9.316;2024-01-25T13:08:54;99299.81;;;11.95;78.47
2785;BME280;57944;48.722;9.316;2024-01-25T13:11:25;99297.59;;;11.83;78.28
2785;BME280;57944;48.722;9.316;2024-01-25T13:13:56;99295.19;;;11.98;80.92
2785;BME280;57944;48.722;9.316;2024-01-25T13:16:29;99293.13;;;11.94;77.75
2785;BME280;57944;48.722;9.316;2024-01-25T13:19:00;99289.94;;;11.92;82.29
2785;BME280;57944;48.722;9.316;2024-01-25T13:21:31;99294.44;;;11.90;78.42
2785;BME280;57944;48.722;9.316;2024-01-25T13:24:02;99289.94;;;11.83;79.82
2785;BME280;57944;48.722;9.316;2024-01-25T13:26:32;99278.78;;;11.84;78.84
2785;BME280;57944;48.722;9.316;2024-01-25T13:29:03;99279.41;;;11.87;84.17
2785;BME280;57944;48.722;9.316;2024-01-25T13:31:36;99276.38;;;11.83;81.95
2785;BME280;57944;48.722;9.316;2024-01-25T13:34:07;99270.28;;;11.92;88.05